createdAt,value
2022-07-25T00:01:55.337Z,8.20
2022-07-25T00:04:23.772Z,7.80
2022-07-25T00:06:50.566Z,7.72
2022-07-25T00:09:17.945Z,8.38
2022-07-25T00:11:44.801Z,7.35
2022-07-25T00:14:11.830Z,8.30
2022-07-25T00:16:38.720Z,7.93
2022-07-25T00:19:05.841Z,8.63
2022-07-25T00:21:32.843Z,7.93
2022-07-25T00:23:59.879Z,7.95
2022-07-25T00:26:26.618Z,7.63
2022-07-25T00:28:53.895Z,8.27
2022-07-25T00:31:20.729Z,7.63
2022-07-25T00:33:47.813Z,8.45
2022-07-25T00:36:14.507Z,7.82
2022-07-25T00:38:41.554Z,7.68
2022-07-25T00:41:08.310Z,7.57
2022-07-25T00:43:35.405Z,7.53
2022-07-25T00:46:02.272Z,6.82
2022-07-25T00:48:30.519Z,7.85
2022-07-25T00:50:58.551Z,7.20
2022-07-25T00:53:26.033Z,8.18
2022-07-25T00:55:53.368Z,8.50
2022-07-25T00:58:20.538Z,7.53
2022-07-25T01:00:47.786Z,7.90
2022-07-25T01:03:15.108Z,7.68
2022-07-25T01:05:42.405Z,7.30
2022-07-25T01:08:10.365Z,8.27
2022-07-25T01:10:37.655Z,7.53
2022-07-25T01:13:05.519Z,7.57
2022-07-25T01:15:32.452Z,7.60
2022-07-25T01:17:59.625Z,7.82
2022-07-25T01:20:28.243Z,7.97
2022-07-25T01:22:55.450Z,8.82
2022-07-25T01:25:22.856Z,8.23
2022-07-25T01:27:55.094Z,8.25
2022-07-25T01:30:23.399Z,9.90
2022-07-25T01:32:50.735Z,8.40
2022-07-25T01:35:17.571Z,8.23
2022-07-25T01:37:46.105Z,8.18
2022-07-25T01:40:14.811Z,8.10
2022-07-25T01:42:42.724Z,7.90
2022-07-25T01:45:12.217Z,8.45
2022-07-25T01:47:39.945Z,9.60
2022-07-25T01:50:07.809Z,8.55
2022-07-25T01:52:35.730Z,8.70
2022-07-25T01:55:02.805Z,9.18
2022-07-25T01:57:30.812Z,8.48
2022-07-25T01:59:59.016Z,8.52
2022-07-25T02:02:26.219Z,8.23
2022-07-25T02:04:53.774Z,8.77
2022-07-25T02:07:20.593Z,8.80
2022-07-25T02:09:47.557Z,8.80
2022-07-25T02:12:14.265Z,8.45
2022-07-25T02:14:41.376Z,8.95
2022-07-25T02:17:08.612Z,8.82
2022-07-25T02:19:36.781Z,8.82
2022-07-25T02:22:03.857Z,7.95
2022-07-25T02:24:31.010Z,9.15
2022-07-25T02:26:57.995Z,8.38
2022-07-25T02:29:25.670Z,8.73
2022-07-25T02:31:53.076Z,7.85
2022-07-25T02:34:20.181Z,8.35
2022-07-25T02:36:47.215Z,8.15
2022-07-25T02:39:14.214Z,8.52
2022-07-25T02:41:41.265Z,9.23
2022-07-25T02:44:08.381Z,7.97
2022-07-25T02:46:35.734Z,8.52
2022-07-25T02:49:02.814Z,8.52
2022-07-25T02:51:30.202Z,7.85
2022-07-25T02:53:58.457Z,8.00
2022-07-25T02:56:36.580Z,9.00
2022-07-25T02:59:03.640Z,8.80
2022-07-25T03:01:30.803Z,8.82
2022-07-25T03:03:57.623Z,8.82
2022-07-25T03:06:24.706Z,8.52
2022-07-25T03:08:51.458Z,9.40
2022-07-25T03:11:18.837Z,9.05
2022-07-25T03:13:45.913Z,8.43
2022-07-25T03:16:12.983Z,8.23
2022-07-25T03:18:39.745Z,8.95
2022-07-25T03:21:07.416Z,8.35
2022-07-25T03:23:34.221Z,8.60
2022-07-25T03:26:01.330Z,7.28
2022-07-25T03:28:28.010Z,8.73
2022-07-25T03:30:55.257Z,7.95
2022-07-25T03:33:22.556Z,8.50
2022-07-25T03:35:49.653Z,8.18
2022-07-25T03:38:16.356Z,8.13
2022-07-25T03:40:43.572Z,7.50
2022-07-25T03:43:10.505Z,8.10
2022-07-25T03:45:37.639Z,7.63
2022-07-25T03:48:04.747Z,7.72
2022-07-25T03:50:31.817Z,7.75
2022-07-25T03:52:58.666Z,8.48
2022-07-25T03:55:25.960Z,8.48
2022-07-25T03:57:52.646Z,8.90
2022-07-25T04:00:19.701Z,8.57
2022-07-25T04:02:46.844Z,8.88
2022-07-25T04:05:14.162Z,8.20
2022-07-25T04:07:40.962Z,8.13
2022-07-25T04:10:09.847Z,9.32
2022-07-25T04:12:36.528Z,8.60
2022-07-25T04:15:03.808Z,9.43
2022-07-25T04:17:30.567Z,9.13
2022-07-25T04:19:57.325Z,8.57
2022-07-25T04:22:24.371Z,10.00
2022-07-25T04:24:51.123Z,8.77
2022-07-25T04:27:19.258Z,9.48
2022-07-25T04:29:45.958Z,9.30
2022-07-25T04:32:14.076Z,9.77
2022-07-25T04:34:40.856Z,9.10
2022-07-25T04:37:07.854Z,9.68
2022-07-25T04:39:34.554Z,9.57
2022-07-25T04:42:02.036Z,10.38
2022-07-25T04:44:28.765Z,10.30
2022-07-25T04:46:56.170Z,8.93
2022-07-25T04:49:22.857Z,9.00
2022-07-25T04:51:50.624Z,9.48
2022-07-25T04:54:17.322Z,8.27
2022-07-25T04:56:44.329Z,9.23
2022-07-25T04:59:11.013Z,10.75
2022-07-25T05:01:38.181Z,9.80
2022-07-25T05:04:05.485Z,10.40
2022-07-25T05:06:33.490Z,10.30
2022-07-25T05:09:00.369Z,10.77
2022-07-25T05:11:27.441Z,9.88
2022-07-25T05:13:54.218Z,10.73
2022-07-25T05:16:21.325Z,10.70
2022-07-25T05:18:48.081Z,9.82
2022-07-25T05:21:15.181Z,10.82
2022-07-25T05:23:41.883Z,9.70
2022-07-25T05:26:08.925Z,10.43
2022-07-25T05:28:36.029Z,10.07
2022-07-25T05:31:03.302Z,10.30
2022-07-25T05:33:30.225Z,10.10
2022-07-25T05:35:57.302Z,9.82
2022-07-25T05:38:24.276Z,9.52
2022-07-25T05:40:52.508Z,9.85
2022-07-25T05:43:19.701Z,10.25
2022-07-25T05:45:47.726Z,11.05
2022-07-25T05:48:15.575Z,10.00
2022-07-25T05:50:42.508Z,10.13
2022-07-25T05:53:09.809Z,10.02
2022-07-25T05:55:40.762Z,10.18
2022-07-25T05:58:09.674Z,10.98
2022-07-25T06:00:36.813Z,10.52
2022-07-25T06:03:04.455Z,10.63
2022-07-25T06:05:31.597Z,10.15
2022-07-25T06:07:58.631Z,10.13
2022-07-25T06:10:25.480Z,10.85
2022-07-25T06:12:52.635Z,10.50
2022-07-25T06:15:22.572Z,11.27
2022-07-25T06:17:54.241Z,10.80
2022-07-25T06:20:21.021Z,10.52
2022-07-25T06:22:48.255Z,10.55
2022-07-25T06:25:15.256Z,10.13
2022-07-25T06:27:43.005Z,10.45
2022-07-25T06:30:19.108Z,11.18
2022-07-25T06:32:48.469Z,11.32
2022-07-25T06:35:15.850Z,10.45
2022-07-25T06:37:42.992Z,11.00
2022-07-25T06:40:10.260Z,10.45
2022-07-25T06:42:41.445Z,11.32
2022-07-25T06:45:09.764Z,10.27
2022-07-25T06:47:37.433Z,10.35
2022-07-25T06:50:11.139Z,9.57
2022-07-25T06:52:38.870Z,10.05
2022-07-25T06:55:06.739Z,9.52
2022-07-25T06:57:33.486Z,9.40
2022-07-25T07:00:00.242Z,9.50
2022-07-25T07:02:27.284Z,9.73
2022-07-25T07:04:54.003Z,9.30
2022-07-25T07:07:21.167Z,9.88
2022-07-25T07:09:47.902Z,9.75
2022-07-25T07:12:14.921Z,9.88
2022-07-25T07:14:43.638Z,10.45
2022-07-25T07:17:10.734Z,10.00
2022-07-25T07:19:44.353Z,10.07
2022-07-25T07:22:11.428Z,10.20
2022-07-25T07:24:44.225Z,9.60
2022-07-25T07:27:15.194Z,9.55
2022-07-25T07:29:45.883Z,9.65
2022-07-25T07:32:13.658Z,10.10
2022-07-25T07:34:40.403Z,10.02
2022-07-25T07:37:07.463Z,9.32
2022-07-25T07:39:34.193Z,9.68
2022-07-25T07:42:01.236Z,9.88
2022-07-25T07:44:27.958Z,9.50
2022-07-25T07:46:55.105Z,8.93
2022-07-25T07:49:21.981Z,9.38
2022-07-25T07:51:49.016Z,10.35
2022-07-25T07:54:34.209Z,9.85
2022-07-25T07:57:01.368Z,9.48
2022-07-25T07:59:28.067Z,9.05
2022-07-25T08:01:55.349Z,8.98
2022-07-25T08:04:22.347Z,8.85
2022-07-25T08:06:49.034Z,8.23
2022-07-25T08:09:16.109Z,8.70
2022-07-25T08:11:42.897Z,9.02
2022-07-25T08:14:10.730Z,9.27
2022-07-25T08:16:38.686Z,8.80
2022-07-25T08:19:05.879Z,8.10
2022-07-25T08:21:32.587Z,8.48
2022-07-25T08:23:59.658Z,8.38
2022-07-25T08:26:27.910Z,8.38
2022-07-25T08:29:17.130Z,8.80
2022-07-25T08:31:41.588Z,9.02
2022-07-25T08:34:09.134Z,8.55
2022-07-25T08:36:37.749Z,8.38
2022-07-25T08:39:05.941Z,8.35
2022-07-25T08:41:34.933Z,8.25
2022-07-25T08:44:04.492Z,8.27
2022-07-25T08:46:31.910Z,8.07
2022-07-25T08:48:59.307Z,8.30
2022-07-25T08:51:26.270Z,8.48
2022-07-25T08:53:55.501Z,7.70
2022-07-25T08:56:22.206Z,7.60
2022-07-25T08:58:49.783Z,7.10
2022-07-25T09:01:16.661Z,7.13
2022-07-25T09:03:44.140Z,7.18
2022-07-25T09:06:29.107Z,7.18
2022-07-25T09:08:58.178Z,7.65
2022-07-25T09:11:37.644Z,7.07
2022-07-25T09:14:11.073Z,8.15
2022-07-25T09:16:46.570Z,7.78
2022-07-25T09:19:18.692Z,7.50
2022-07-25T09:21:57.917Z,7.57
2022-07-25T09:24:26.636Z,7.68
2022-07-25T09:26:56.023Z,7.30
2022-07-25T09:31:59.044Z,7.43
2022-07-25T09:34:41.066Z,7.93
2022-07-25T09:37:12.046Z,7.38
2022-07-25T09:39:47.390Z,7.45
2022-07-25T09:42:33.387Z,6.80
2022-07-25T09:45:20.673Z,7.53
2022-07-25T09:47:54.694Z,6.55
2022-07-25T09:50:23.351Z,7.18
2022-07-25T09:52:55.425Z,7.28
2022-07-25T09:55:23.313Z,6.47
2022-07-25T09:57:50.513Z,7.25
2022-07-25T10:00:21.478Z,6.32
2022-07-25T10:03:27.903Z,5.95
2022-07-25T10:06:00.944Z,5.78
2022-07-25T10:08:28.120Z,6.43
2022-07-25T10:10:55.501Z,6.28
2022-07-25T10:13:35.555Z,5.97
2022-07-25T10:16:03.332Z,5.57
2022-07-25T10:18:31.588Z,4.95
2022-07-25T10:21:25.683Z,5.32
2022-07-25T10:24:02.583Z,5.38
2022-07-25T10:26:30.671Z,5.35
2022-07-25T10:28:58.536Z,4.78
2022-07-25T10:31:42.170Z,4.80
2022-07-25T10:34:16.143Z,4.70
2022-07-25T10:36:51.786Z,5.18
2022-07-25T10:39:21.182Z,5.05
2022-07-25T10:42:02.300Z,5.20
2022-07-25T10:44:41.742Z,4.30
2022-07-25T10:47:13.066Z,4.40
2022-07-25T10:50:14.504Z,3.90
2022-07-25T10:52:41.852Z,4.05
2022-07-25T10:55:09.374Z,4.28
2022-07-25T10:57:45.148Z,3.88
2022-07-25T11:00:22.615Z,4.00
2022-07-25T11:02:50.155Z,3.85
2022-07-25T11:05:17.047Z,4.00
2022-07-25T11:08:20.000Z,3.72
2022-07-25T11:10:41.144Z,3.58
2022-07-25T11:13:14.676Z,3.40
2022-07-25T11:15:42.598Z,4.03
2022-07-25T11:18:09.659Z,3.20
2022-07-25T11:20:36.378Z,3.97
2022-07-25T11:23:03.419Z,3.70
2022-07-25T11:25:30.229Z,3.50
2022-07-25T11:28:00.245Z,4.03
2022-07-25T11:30:29.088Z,3.72
2022-07-25T11:32:58.909Z,3.90
2022-07-25T11:35:33.248Z,3.80
2022-07-25T11:38:02.689Z,3.88
2022-07-25T11:40:32.531Z,3.88
2022-07-25T11:43:01.291Z,3.72
2022-07-25T11:45:33.879Z,4.10
2022-07-25T11:48:13.370Z,4.03
2022-07-25T11:50:43.050Z,3.92
2022-07-25T11:53:15.752Z,3.70
2022-07-25T11:55:43.695Z,4.13
2022-07-25T11:58:13.136Z,3.90
2022-07-25T12:00:44.210Z,4.40
2022-07-25T12:03:20.003Z,4.43
2022-07-25T12:05:48.335Z,4.05
2022-07-25T12:08:20.848Z,3.92
2022-07-25T12:10:50.516Z,4.40
2022-07-25T12:13:29.287Z,4.75
2022-07-25T12:15:57.882Z,4.38
2022-07-25T12:18:25.563Z,4.90
2022-07-25T12:20:53.214Z,4.80
2022-07-25T12:23:22.103Z,4.75
2022-07-25T12:25:55.107Z,4.88
2022-07-25T12:28:22.411Z,4.88
2022-07-25T12:30:56.029Z,5.10
2022-07-25T12:33:23.722Z,4.43
2022-07-25T12:35:50.516Z,4.78
2022-07-25T12:38:17.601Z,5.68
2022-07-25T12:40:44.786Z,5.10
2022-07-25T12:43:11.806Z,5.65
2022-07-25T12:45:38.658Z,5.43
2022-07-25T12:48:05.998Z,5.72
2022-07-25T12:50:32.737Z,6.30
2022-07-25T12:52:59.883Z,5.80
2022-07-25T12:55:26.663Z,5.70
2022-07-25T12:57:54.434Z,5.65
2022-07-25T13:00:23.127Z,6.07
2022-07-25T13:02:52.224Z,5.43
2022-07-25T13:05:20.036Z,5.57
2022-07-25T13:07:49.250Z,5.72
2022-07-25T13:10:17.268Z,5.47
2022-07-25T13:12:44.470Z,5.97
2022-07-25T13:15:11.180Z,5.32
2022-07-25T13:17:38.207Z,5.63
2022-07-25T13:20:05.436Z,5.32
2022-07-25T13:22:32.724Z,4.60
2022-07-25T13:24:59.696Z,5.43
2022-07-25T13:27:26.378Z,5.57
2022-07-25T13:29:56.432Z,5.63
2022-07-25T13:32:24.040Z,5.18
2022-07-25T13:34:51.060Z,5.50
2022-07-25T13:37:17.862Z,5.00
2022-07-25T13:39:45.000Z,5.03
2022-07-25T13:42:11.668Z,5.20
2022-07-25T13:44:38.745Z,5.35
2022-07-25T13:47:05.623Z,5.05
2022-07-25T13:49:32.931Z,4.90
2022-07-25T13:51:59.657Z,5.47
2022-07-25T13:54:26.690Z,5.38
2022-07-25T13:56:53.472Z,5.15
2022-07-25T13:59:21.674Z,5.32
2022-07-25T14:01:49.395Z,5.28
2022-07-25T14:04:16.763Z,4.85
2022-07-25T14:06:43.767Z,5.40
2022-07-25T14:09:11.129Z,5.57
2022-07-25T14:11:38.344Z,5.32
2022-07-25T14:14:05.349Z,5.63
2022-07-25T14:16:34.056Z,5.45
2022-07-25T14:19:02.436Z,5.03
2022-07-25T14:21:29.876Z,5.53
2022-07-25T14:23:57.022Z,5.72
2022-07-25T14:26:23.739Z,5.30
2022-07-25T14:28:50.710Z,5.93
2022-07-25T14:31:17.837Z,5.68
2022-07-25T14:33:44.620Z,5.13
2022-07-25T14:36:11.725Z,5.60
2022-07-25T14:38:39.171Z,6.30
2022-07-25T14:41:10.707Z,5.88
2022-07-25T14:43:40.085Z,6.18
2022-07-25T14:46:08.291Z,5.50
2022-07-25T14:48:38.964Z,5.40
2022-07-25T14:51:07.245Z,5.82
2022-07-25T14:53:34.908Z,5.77
2022-07-25T14:56:04.334Z,6.05
2022-07-25T14:58:31.545Z,5.93
2022-07-25T15:00:58.661Z,5.95
2022-07-25T15:03:25.523Z,6.05
2022-07-25T15:05:52.808Z,5.72
2022-07-25T15:08:19.605Z,5.53
2022-07-25T15:10:47.244Z,6.22
2022-07-25T15:13:30.390Z,6.00
2022-07-25T15:15:58.667Z,5.55
2022-07-25T15:18:25.610Z,5.97
2022-07-25T15:20:52.663Z,6.47
2022-07-25T15:23:21.006Z,5.80
2022-07-25T15:26:04.588Z,5.93
2022-07-25T15:28:36.278Z,6.05
2022-07-25T15:31:04.229Z,5.93
2022-07-25T15:33:31.398Z,5.40
2022-07-25T15:35:59.023Z,5.43
2022-07-25T15:38:26.376Z,5.65
2022-07-25T15:40:53.450Z,5.53
2022-07-25T15:43:20.334Z,5.20
2022-07-25T15:45:48.171Z,6.15
2022-07-25T15:48:16.117Z,4.75
2022-07-25T15:50:46.054Z,4.88
2022-07-25T15:53:13.550Z,5.20
2022-07-25T15:55:41.934Z,5.50
2022-07-25T15:58:10.075Z,5.63
2022-07-25T16:00:38.781Z,5.07
2022-07-25T16:03:05.971Z,4.80
2022-07-25T16:05:33.080Z,5.00
2022-07-25T16:08:03.413Z,4.75
2022-07-25T16:10:32.298Z,5.03
2022-07-25T16:12:59.592Z,4.40
2022-07-25T16:15:26.851Z,5.47
2022-07-25T16:18:00.078Z,4.93
2022-07-25T16:20:31.741Z,5.28
2022-07-25T16:22:59.232Z,4.30
2022-07-25T16:25:27.445Z,4.68
2022-07-25T16:27:54.728Z,4.80
2022-07-25T16:30:21.605Z,5.13
2022-07-25T16:32:48.699Z,3.85
2022-07-25T16:35:15.669Z,4.72
2022-07-25T16:37:43.094Z,4.95
2022-07-25T16:40:10.113Z,4.60
2022-07-25T16:42:37.692Z,4.68
2022-07-25T16:45:05.563Z,4.68
2022-07-25T16:47:32.636Z,4.55
2022-07-25T16:49:59.345Z,4.50
2022-07-25T16:52:26.498Z,4.50
2022-07-25T16:54:53.198Z,4.60
2022-07-25T16:57:24.703Z,5.22
2022-07-25T16:59:53.281Z,4.57
2022-07-25T17:02:24.809Z,4.63
2022-07-25T17:04:54.501Z,4.88
2022-07-25T17:07:21.651Z,4.80
2022-07-25T17:09:48.365Z,5.22
2022-07-25T17:12:16.820Z,5.65
2022-07-25T17:14:44.503Z,5.60
2022-07-25T17:17:11.770Z,5.18
2022-07-25T17:19:39.947Z,5.18
2022-07-25T17:22:08.166Z,5.95
2022-07-25T17:24:35.673Z,5.50
2022-07-25T17:27:02.815Z,5.32
2022-07-25T17:29:29.721Z,4.93
2022-07-25T17:31:56.806Z,4.97
2022-07-25T17:34:24.408Z,5.25
2022-07-25T17:36:51.520Z,5.18
2022-07-25T17:39:18.289Z,4.70
2022-07-25T17:41:46.402Z,5.57
2022-07-25T17:44:13.521Z,4.97
2022-07-25T17:46:40.888Z,4.93
2022-07-25T17:49:07.733Z,4.53
2022-07-25T17:51:34.496Z,4.88
2022-07-25T17:54:01.515Z,5.20
2022-07-25T17:56:28.237Z,5.05
2022-07-25T17:58:56.427Z,5.05
2022-07-25T18:01:23.236Z,4.75
2022-07-25T18:03:50.861Z,4.78
2022-07-25T18:06:17.744Z,5.13
2022-07-25T18:08:44.868Z,4.63
2022-07-25T18:11:11.605Z,4.93
2022-07-25T18:13:38.797Z,4.95
2022-07-25T18:16:05.981Z,4.80
2022-07-25T18:18:33.358Z,4.78
2022-07-25T18:21:00.272Z,4.75
2022-07-25T18:23:28.977Z,5.10
2022-07-25T18:25:55.732Z,5.20
2022-07-25T18:28:22.938Z,5.18
2022-07-25T18:30:52.038Z,5.28
2022-07-25T18:33:20.699Z,6.25
2022-07-25T18:35:48.997Z,5.55
2022-07-25T18:38:16.051Z,6.15
2022-07-25T18:40:42.739Z,5.65
2022-07-25T18:43:10.635Z,5.25
2022-07-25T18:45:37.665Z,5.68
2022-07-25T18:48:06.596Z,5.53
2022-07-25T18:50:33.694Z,5.60
2022-07-25T18:53:00.876Z,5.22
2022-07-25T18:55:27.600Z,5.38
2022-07-25T18:57:54.686Z,5.55
2022-07-25T19:00:21.601Z,5.45
2022-07-25T19:02:48.734Z,5.65
2022-07-25T19:05:15.663Z,5.82
2022-07-25T19:07:43.171Z,5.70
2022-07-25T19:10:10.917Z,5.75
2022-07-25T19:12:38.373Z,5.63
2022-07-25T19:15:06.137Z,5.75
2022-07-25T19:17:35.473Z,5.90
2022-07-25T19:20:03.239Z,6.32
2022-07-25T19:22:30.368Z,5.60
2022-07-25T19:24:57.075Z,6.28
2022-07-25T19:27:25.787Z,6.13
2022-07-25T19:29:52.902Z,5.68
2022-07-25T19:32:19.598Z,5.68
2022-07-25T19:34:46.655Z,6.03
2022-07-25T19:37:13.429Z,5.60
2022-07-25T19:39:40.458Z,5.78
2022-07-25T19:42:09.731Z,5.65
2022-07-25T19:44:38.839Z,5.60
2022-07-25T19:47:11.236Z,5.57
2022-07-25T19:49:40.331Z,5.18
2022-07-25T19:52:08.284Z,5.57
2022-07-25T19:54:35.637Z,5.35
2022-07-25T19:57:02.634Z,5.50
2022-07-25T19:59:29.665Z,6.15
2022-07-25T20:01:56.865Z,5.53
2022-07-25T20:04:24.136Z,5.22
2022-07-25T20:06:50.836Z,5.55
2022-07-25T20:09:17.881Z,5.43
2022-07-25T20:11:44.905Z,6.28
2022-07-25T20:14:11.615Z,5.80
2022-07-25T20:16:39.596Z,5.80
2022-07-25T20:19:09.164Z,6.35
2022-07-25T20:24:04.441Z,5.47
2022-07-25T20:26:31.422Z,5.05
2022-07-25T20:28:58.272Z,5.35
2022-07-25T20:31:25.650Z,4.95
2022-07-25T20:33:53.528Z,5.78
2022-07-25T20:36:21.290Z,5.40
2022-07-25T20:38:48.024Z,5.20
2022-07-25T20:41:16.039Z,5.35
2022-07-25T20:43:42.819Z,4.90
2022-07-25T20:46:09.978Z,5.75
2022-07-25T20:48:36.892Z,4.90
2022-07-25T20:51:03.877Z,5.47
2022-07-25T20:53:30.973Z,4.70
2022-07-25T20:55:58.272Z,5.15
2022-07-25T20:58:25.411Z,6.20
2022-07-25T21:00:52.248Z,5.75
2022-07-25T21:03:19.330Z,5.85
2022-07-25T21:05:46.038Z,5.32
2022-07-25T21:08:13.034Z,5.25
2022-07-25T21:10:39.852Z,5.05
2022-07-25T21:13:07.058Z,4.22
2022-07-25T21:15:33.958Z,5.15
2022-07-25T21:18:01.124Z,5.57
2022-07-25T21:20:28.290Z,5.05
2022-07-25T21:22:55.642Z,4.88
2022-07-25T21:25:22.509Z,4.68
2022-07-25T21:27:49.666Z,4.82
2022-07-25T21:30:16.384Z,4.38
2022-07-25T21:32:44.682Z,4.65
2022-07-25T21:35:11.531Z,4.47
2022-07-25T21:37:38.763Z,3.92
2022-07-25T21:40:06.401Z,4.10
2022-07-25T21:42:33.457Z,3.63
2022-07-25T21:45:00.157Z,3.78
2022-07-25T21:47:27.184Z,3.47
2022-07-25T21:50:12.996Z,3.58
2022-07-25T21:52:40.636Z,3.72
2022-07-25T21:55:08.056Z,3.40
2022-07-25T21:57:35.151Z,4.22
2022-07-25T22:00:01.892Z,3.75
2022-07-25T22:02:28.616Z,3.40
2022-07-25T22:04:55.778Z,4.20
2022-07-25T22:07:22.882Z,3.42
2022-07-25T22:09:49.889Z,3.47
2022-07-25T22:12:16.663Z,3.70
2022-07-25T22:14:43.695Z,3.28
2022-07-25T22:17:10.550Z,3.33
2022-07-25T22:19:37.631Z,3.35
2022-07-25T22:22:06.064Z,3.58
2022-07-25T22:24:33.214Z,2.45
2022-07-25T22:27:00.201Z,2.65
2022-07-25T22:29:27.230Z,3.20
2022-07-25T22:31:54.008Z,2.70
2022-07-25T22:34:21.155Z,3.05
2022-07-25T22:36:47.884Z,2.70
2022-07-25T22:39:16.046Z,2.72
2022-07-25T22:41:43.273Z,2.75
2022-07-25T22:44:10.359Z,1.73
2022-07-25T22:46:37.189Z,1.83
2022-07-25T22:49:04.745Z,2.38
2022-07-25T22:51:31.661Z,2.40
2022-07-25T22:53:58.920Z,2.38
2022-07-25T22:56:26.649Z,2.30
2022-07-25T22:58:53.553Z,2.45
2022-07-25T23:01:21.480Z,2.08
2022-07-25T23:03:50.070Z,2.50
2022-07-25T23:06:19.539Z,2.40
2022-07-25T23:08:47.008Z,2.00
2022-07-25T23:11:14.298Z,1.98
2022-07-25T23:13:41.024Z,2.35
2022-07-25T23:16:10.254Z,1.95
2022-07-25T23:18:37.508Z,2.30
2022-07-25T23:21:04.554Z,2.00
2022-07-25T23:23:32.428Z,2.00
2022-07-25T23:25:59.462Z,2.05
2022-07-25T23:28:26.163Z,2.35
2022-07-25T23:30:53.234Z,2.53
2022-07-25T23:33:24.482Z,2.22
2022-07-25T23:35:53.437Z,2.58
2022-07-25T23:38:20.383Z,2.30
2022-07-25T23:40:47.619Z,2.50
2022-07-25T23:43:16.993Z,2.80
2022-07-25T23:45:58.953Z,2.70
2022-07-25T23:48:27.714Z,2.33
2022-07-25T23:50:54.753Z,2.70
2022-07-25T23:53:21.487Z,2.28
2022-07-25T23:55:48.494Z,3.00
2022-07-25T23:58:15.198Z,2.65
